Disclaimer

Please do not use the information listed here in-flight or in-navigation, as they are not provided to us by the airports but are provided by volunteers, so they might be outdated.

Search


Regions


Airport information page

Radio informations:
Tower (TWR) - 120.4 MHz
Approach (APP) - 119.85 MHz

Airport informations:
Latitude: 48° 39' 47.00" N
Longitude: 021° 14' 28.00" E
Elevation: 755 feet - 230 meters
Operating hours: 24 hour operations
Operating agency: Military-civil joint use airport
Timezone: UTC+1(+2DT)
Fuel: Aviation Gasoline (AVGAS), octane unknown.

Jet fuel avaiable but type is unknown.

Runway information:
01/19 - 10171 x 148 feet< - >3100 x 45 meters

Recent METARs:
LZKZ 160600Z 01012KT CAVOK 05/00 Q1032 NOSIG
LZKZ 160630Z 36014KT CAVOK 05/00 Q1032 NOSIG
LZKZ 160700Z 36016KT CAVOK 05/00 Q1033 NOSIG

Airport on the map: